createdAt,value
2019-03-26T00:13:28.290Z,3.50
2019-03-26T00:28:31.098Z,3.30
2019-03-26T00:43:33.906Z,3.40
2019-03-26T00:58:36.679Z,3.20
2019-03-26T01:13:39.457Z,3.20
2019-03-26T01:28:42.241Z,3.40
2019-03-26T01:43:46.123Z,3.50
2019-03-26T01:58:48.899Z,3.40
2019-03-26T02:13:51.697Z,3.30
2019-03-26T02:28:54.466Z,3.30
2019-03-26T02:43:57.320Z,3.40
2019-03-26T02:59:00.131Z,3.90
2019-03-26T03:14:02.858Z,4.10
2019-03-26T03:29:05.634Z,4.20
2019-03-26T03:44:08.423Z,4.10
2019-03-26T03:59:11.196Z,4.20
2019-03-26T04:14:13.981Z,4.40
2019-03-26T04:29:17.639Z,4.40
2019-03-26T04:44:20.433Z,4.40
2019-03-26T04:59:23.359Z,4.30
2019-03-26T05:14:26.134Z,4.20
2019-03-26T05:29:29.016Z,3.90
2019-03-26T05:44:31.810Z,4.20
2019-03-26T05:59:38.380Z,4.60
2019-03-26T06:14:41.126Z,4.60
2019-03-26T06:29:43.985Z,4.80
2019-03-26T06:44:46.769Z,5.10
2019-03-26T06:59:49.539Z,5.30
2019-03-26T07:14:52.319Z,5.50
2019-03-26T07:29:55.127Z,5.60
2019-03-26T07:44:57.887Z,5.90
2019-03-26T08:00:00.706Z,5.60
2019-03-26T08:15:03.531Z,5.80
2019-03-26T08:30:06.303Z,6.10
2019-03-26T08:45:09.892Z,6.30
2019-03-26T09:00:12.695Z,6.40
2019-03-26T09:15:15.598Z,6.60
2019-03-26T09:30:18.391Z,6.30
2019-03-26T09:45:21.210Z,6.40
2019-03-26T10:00:24.057Z,7.00
2019-03-26T10:15:26.809Z,7.10
2019-03-26T10:30:30.567Z,6.50
2019-03-26T10:45:33.359Z,7.30
2019-03-26T11:00:36.155Z,7.40
2019-03-26T11:15:39.491Z,7.90
2019-03-26T11:30:42.278Z,8.20
2019-03-26T11:45:45.069Z,8.10
2019-03-26T12:00:47.868Z,8.10
2019-03-26T12:15:50.637Z,8.60
2019-03-26T12:30:53.412Z,9.00
2019-03-26T12:45:56.269Z,9.50
2019-03-26T13:00:59.056Z,10.10
2019-03-26T13:16:01.834Z,9.70
2019-03-26T13:31:05.237Z,10.60
2019-03-26T13:46:08.023Z,9.40
2019-03-26T14:01:10.803Z,8.80
2019-03-26T14:16:13.594Z,9.30
2019-03-26T14:31:16.402Z,9.70
2019-03-26T14:46:19.176Z,9.00
2019-03-26T15:01:21.980Z,8.70
2019-03-26T15:16:24.792Z,8.00
2019-03-26T15:31:27.589Z,8.00
2019-03-26T15:46:30.454Z,7.90
2019-03-26T16:01:35.798Z,7.60
2019-03-26T16:16:38.597Z,7.50
2019-03-26T16:31:41.397Z,7.40
2019-03-26T16:46:44.498Z,7.10
2019-03-26T17:01:48.292Z,6.90
2019-03-26T17:16:51.091Z,6.70
2019-03-26T17:31:53.886Z,6.60
2019-03-26T17:46:56.660Z,6.40
2019-03-26T18:01:59.460Z,6.20
2019-03-26T18:17:02.260Z,6.30
2019-03-26T18:32:05.062Z,6.20
2019-03-26T18:47:07.850Z,5.80
2019-03-26T19:02:10.659Z,5.70
2019-03-26T19:17:14.083Z,5.50
2019-03-26T19:32:16.870Z,5.10
2019-03-26T19:47:19.676Z,4.90
2019-03-26T20:02:22.464Z,5.00
2019-03-26T20:17:25.260Z,4.40
2019-03-26T20:32:28.080Z,4.20
2019-03-26T20:47:30.906Z,4.50
2019-03-26T21:02:36.692Z,4.20
2019-03-26T21:17:37.400Z,4.20
2019-03-26T21:32:40.211Z,4.20
2019-03-26T21:47:42.994Z,4.00
2019-03-26T22:02:45.799Z,3.90
2019-03-26T22:17:48.613Z,3.80
2019-03-26T22:32:51.418Z,3.60
2019-03-26T22:47:54.214Z,3.50
2019-03-26T23:02:57.002Z,3.40
2019-03-26T23:17:59.787Z,3.00
2019-03-26T23:33:02.601Z,2.50
2019-03-26T23:48:05.385Z,2.40
